Time;durP1;ratioP1;P1;durP2;ratioP2;P2;SDS_P1;SDS_P2;PMS_P1;PMS_P2;Temp;Humidity;BMP_temperature;BMP_pressure;BME280_temperature;BME280_humidity;BME280_pressure;Samples;Min_cycle;Max_cycle;Signal;HPM_P1;HPM_P2
2022/06/07 00:02:10;;;;;;;2.20;2.00;;;;;;;23.12;51.95;101130.16;5091212;28;20440;-60
2022/06/07 00:04:38;;;;;;;2.38;2.10;;;;;;;23.09;51.95;101127.91;5090342;28;20426;-60
2022/06/07 00:07:06;;;;;;;2.40;1.95;;;;;;;23.19;52.06;101128.09;5090860;28;20416;-60
2022/06/07 00:09:34;;;;;;;2.20;2.00;;;;;;;23.12;52.11;101124.72;5090604;28;20798;-60
2022/06/07 00:12:01;;;;;;;3.13;2.08;;;;;;;23.35;51.74;101114.81;5090630;28;20410;-60
2022/06/07 00:15:24;;;;;;;2.22;1.98;;;;;;;23.48;51.18;101114.50;5067365;28;20403;-61
2022/06/07 00:17:51;;;;;;;2.70;2.20;;;;;;;23.36;51.30;101114.56;5057972;28;20509;-58
2022/06/07 00:20:18;;;;;;;2.90;2.13;;;;;;;23.18;52.33;101112.13;5060623;28;20424;-58
2022/06/07 00:22:47;;;;;;;2.47;2.28;;;;;;;23.17;52.43;101107.75;5059886;28;20436;-58
2022/06/07 00:25:47;;;;;;;3.33;2.25;;;;;;;23.04;52.12;101103.44;5087487;27;20428;-58
2022/06/07 00:28:14;;;;;;;4.85;2.30;;;;;;;23.03;52.04;101099.09;5083404;28;20416;-58
2022/06/07 00:30:41;;;;;;;3.58;2.20;;;;;;;23.10;52.08;101102.50;5076974;28;20782;-58
2022/06/07 00:33:09;;;;;;;2.70;2.00;;;;;;;23.29;51.84;101097.69;5080801;28;20425;-59
2022/06/07 00:35:36;;;;;;;2.33;2.10;;;;;;;23.20;51.44;101107.28;5075183;28;21889;-59
2022/06/07 00:38:03;;;;;;;4.20;2.25;;;;;;;23.32;51.57;101113.44;5071261;28;20418;-59
2022/06/07 00:40:30;;;;;;;2.55;2.28;;;;;;;23.26;51.35;101115.25;5074739;28;20426;-59
2022/06/07 00:42:58;;;;;;;3.05;2.13;;;;;;;23.22;51.57;101113.25;5077573;28;20422;-59
2022/06/07 00:45:26;;;;;;;2.58;2.30;;;;;;;23.26;51.35;101117.09;5078496;28;20425;-59
2022/06/07 00:47:53;;;;;;;3.35;2.53;;;;;;;23.13;51.94;101112.03;5073199;28;20419;-59
2022/06/07 00:51:31;;;;;;;2.70;2.20;;;;;;;23.38;51.20;101112.44;5091945;27;20495;-58
2022/06/07 00:53:57;;;;;;;2.90;2.28;;;;;;;23.37;51.57;101124.34;5081526;28;20420;-59
2022/06/07 00:56:24;;;;;;;3.90;2.42;;;;;;;23.37;51.70;101112.69;5082866;28;20410;-59
2022/06/07 00:58:51;;;;;;;3.42;2.30;;;;;;;23.62;51.20;101115.81;5079647;28;20417;-59
2022/06/07 01:01:18;;;;;;;3.30;2.30;;;;;;;23.52;51.09;101115.66;5082800;28;20422;-59
2022/06/07 01:04:39;;;;;;;2.85;2.60;;;;;;;23.65;50.87;101126.13;5094370;27;20833;-58
2022/06/07 01:12:35;;;;;;;2.83;2.28;;;;;;;23.63;50.53;101114.72;5084191;28;20439;-58
2022/06/07 01:15:03;;;;;;;2.65;2.28;;;;;;;23.75;50.11;101116.50;5082745;28;20418;-58
2022/06/07 01:17:30;;;;;;;4.40;2.20;;;;;;;23.47;50.74;101120.97;5085132;28;20933;-58
2022/06/07 01:19:58;;;;;;;2.70;2.20;;;;;;;23.60;50.02;101115.22;5084695;28;20422;-58
2022/06/07 01:22:26;;;;;;;2.50;2.20;;;;;;;23.61;49.93;101116.06;5084901;28;20430;-61
2022/06/07 01:24:53;;;;;;;2.38;2.20;;;;;;;23.61;50.13;101119.56;5085285;28;20410;-60
2022/06/07 01:27:21;;;;;;;3.87;2.30;;;;;;;23.67;49.92;101115.88;5085478;28;20422;-59
2022/06/07 01:29:48;;;;;;;4.55;2.40;;;;;;;23.58;50.09;101119.25;5085565;28;20493;-60
2022/06/07 01:32:15;;;;;;;2.67;2.20;;;;;;;23.56;49.92;101118.69;5084729;28;20416;-58
2022/06/07 01:34:43;;;;;;;3.53;2.50;;;;;;;23.51;49.95;101108.59;5084805;28;20412;-58
2022/06/07 01:37:11;;;;;;;3.90;2.10;;;;;;;23.67;49.74;101115.06;5084725;28;20421;-60
2022/06/07 01:42:25;;;;;;;3.15;2.45;;;;;;;23.57;49.95;101113.03;5083146;28;20942;-60
2022/06/07 01:44:52;;;;;;;3.22;2.22;;;;;;;23.57;49.69;101110.31;5082127;28;20580;-61
2022/06/07 01:47:22;;;;;;;3.40;2.20;;;;;;;23.47;50.31;101104.75;5083183;28;20803;-60
2022/06/07 01:49:49;;;;;;;3.45;2.10;;;;;;;23.50;49.92;101101.56;5084170;28;20800;-58
2022/06/07 01:52:56;;;;;;;4.45;2.40;;;;;;;23.64;49.91;101093.88;5073672;27;20411;-60
2022/06/07 01:55:22;;;;;;;2.67;2.10;;;;;;;23.76;49.38;101097.31;5057225;28;20428;-60
2022/06/07 01:57:49;;;;;;;2.90;2.25;;;;;;;23.69;49.81;101099.38;5062424;28;20421;-58
2022/06/07 02:00:17;;;;;;;2.58;2.33;;;;;;;23.74;49.53;101094.06;5064559;28;20418;-60
2022/06/07 02:02:44;;;;;;;4.43;2.38;;;;;;;23.73;49.49;101091.59;5061614;28;20416;-60
2022/06/07 02:05:11;;;;;;;3.63;2.33;;;;;;;23.74;49.67;101091.34;5061862;28;20437;-60
2022/06/07 02:07:38;;;;;;;3.40;2.50;;;;;;;23.77;49.71;101096.25;5061196;28;20424;-58
2022/06/07 02:10:08;;;;;;;3.42;2.55;;;;;;;23.70;49.91;101100.19;5061745;28;20418;-60
2022/06/07 02:12:35;;;;;;;2.85;2.40;;;;;;;23.67;49.56;101098.81;5061594;28;20951;-60
2022/06/07 02:17:03;;;;;;;2.95;2.50;;;;;;;23.72;49.90;101108.91;5093704;27;20483;-58
2022/06/07 02:19:30;;;;;;;3.17;2.53;;;;;;;23.70;49.50;101109.16;5082235;28;20421;-59
2022/06/07 02:21:57;;;;;;;3.17;2.40;;;;;;;23.70;49.80;101111.84;5084381;28;20427;-59
2022/06/07 02:24:24;;;;;;;2.47;2.22;;;;;;;23.67;49.64;101104.22;5080581;28;20424;-59
2022/06/07 02:26:53;;;;;;;3.70;2.70;;;;;;;23.65;49.32;101103.66;5081036;28;20417;-59
2022/06/07 02:29:25;;;;;;;2.80;2.45;;;;;;;23.68;49.53;101114.00;5079004;28;20421;-59
2022/06/07 02:31:55;;;;;;;4.63;2.50;;;;;;;23.59;49.79;101110.06;5083612;28;20495;-59
2022/06/07 02:34:24;;;;;;;3.60;3.03;;;;;;;23.62;49.83;101110.41;5082624;28;20983;-59
2022/06/07 02:36:56;;;;;;;3.97;2.27;;;;;;;23.65;50.18;101114.50;5081403;28;20835;-59
2022/06/07 02:41:27;;;;;;;4.65;3.20;;;;;;;23.53;51.02;101114.56;5092344;27;20784;-60
2022/06/07 02:43:54;;;;;;;5.80;2.90;;;;;;;23.45;51.16;101113.09;5081165;28;20426;-58
2022/06/07 02:46:21;;;;;;;4.13;3.10;;;;;;;23.36;51.50;101108.34;5082287;28;20420;-58
2022/06/07 02:48:48;;;;;;;4.88;3.15;;;;;;;23.32;51.19;101112.59;5082432;28;20928;-61
2022/06/07 02:51:15;;;;;;;3.80;3.13;;;;;;;23.20;51.44;101118.09;5082000;28;20420;-58
2022/06/07 02:53:42;;;;;;;3.42;3.13;;;;;;;23.11;51.89;101111.44;5083455;28;20432;-61
2022/06/07 02:56:09;;;;;;;3.90;2.83;;;;;;;23.09;51.66;101117.91;5078400;28;20415;-61
2022/06/07 02:58:38;;;;;;;3.72;2.97;;;;;;;22.81;52.21;101118.72;5080649;28;20415;-61
2022/06/07 03:01:05;;;;;;;5.13;3.03;;;;;;;22.85;52.35;101119.06;5082136;28;20436;-58
2022/06/07 03:03:31;;;;;;;4.40;2.97;;;;;;;22.97;51.85;101119.81;5081748;28;20423;-58
2022/06/07 03:05:58;;;;;;;3.80;3.05;;;;;;;22.99;51.88;101130.41;5081863;28;20927;-58
2022/06/07 03:08:26;;;;;;;4.57;2.95;;;;;;;22.92;51.83;101138.66;5081249;28;20419;-58
2022/06/07 03:10:53;;;;;;;3.42;2.75;;;;;;;22.94;51.63;101135.72;5082289;28;20801;-58
2022/06/07 03:13:20;;;;;;;4.13;2.80;;;;;;;22.99;51.39;101135.81;5082521;28;20415;-58
2022/06/07 03:15:49;;;;;;;3.92;3.13;;;;;;;22.99;51.41;101133.91;5079020;28;20474;-58
2022/06/07 03:18:16;;;;;;;4.65;3.40;;;;;;;22.94;51.67;101124.88;5081540;28;20420;-59
2022/06/07 03:20:43;;;;;;;3.25;2.83;;;;;;;22.94;51.72;101135.72;5080383;28;20951;-60
2022/06/07 03:23:10;;;;;;;4.40;2.95;;;;;;;22.92;51.68;101135.94;5078849;28;20471;-61
2022/06/07 03:25:37;;;;;;;4.63;2.85;;;;;;;22.95;51.54;101124.66;5083095;28;20962;-61
2022/06/07 03:28:05;;;;;;;4.50;2.97;;;;;;;22.93;51.80;101126.78;5076154;28;20432;-60
2022/06/07 03:30:32;;;;;;;4.68;2.90;;;;;;;23.03;51.82;101131.53;5082589;28;20421;-60
2022/06/07 03:33:00;;;;;;;3.63;2.90;;;;;;;23.07;51.67;101133.56;5081209;28;20437;-60
2022/06/07 03:35:27;;;;;;;4.20;2.70;;;;;;;23.02;51.58;101129.91;5080390;28;20916;-60
2022/06/07 03:37:54;;;;;;;3.30;2.67;;;;;;;23.00;51.32;101132.06;5082273;28;20414;-60
2022/06/07 03:43:03;;;;;;;4.25;3.10;;;;;;;23.15;51.53;101140.44;5080420;28;20417;-60
2022/06/07 03:45:31;;;;;;;5.50;2.83;;;;;;;23.20;51.64;101137.03;5075433;28;20884;-61
2022/06/07 03:47:57;;;;;;;5.30;3.78;;;;;;;23.25;51.40;101139.81;5078511;28;20412;-61
2022/06/07 03:50:26;;;;;;;7.43;3.65;;;;;;;23.22;51.52;101138.41;5077096;28;20440;-60
2022/06/07 03:52:53;;;;;;;5.53;4.27;;;;;;;23.18;51.20;101139.97;5062830;28;20437;-58
2022/06/07 03:55:20;;;;;;;6.10;4.65;;;;;;;23.16;51.51;101136.69;5066815;28;20519;-60
2022/06/07 03:57:47;;;;;;;5.65;4.30;;;;;;;23.18;51.32;101141.88;5066616;28;20419;-60
2022/06/07 04:00:14;;;;;;;4.55;3.35;;;;;;;23.17;51.18;101149.13;5067164;28;20434;-60
2022/06/07 04:02:42;;;;;;;4.57;3.70;;;;;;;23.15;50.93;101145.84;5067887;28;20423;-60
2022/06/07 04:05:09;;;;;;;5.88;3.50;;;;;;;23.10;50.83;101143.06;5065450;28;20817;-60
2022/06/07 04:10:22;;;;;;;3.85;3.28;;;;;;;23.08;50.78;101151.44;5069496;28;20935;-60
2022/06/07 04:12:49;;;;;;;7.40;3.50;;;;;;;23.11;51.07;101149.31;5066884;28;20931;-60
2022/06/07 04:15:16;;;;;;;4.72;3.03;;;;;;;23.17;51.06;101156.44;5065216;28;20419;-59
2022/06/07 04:17:43;;;;;;;7.38;3.17;;;;;;;23.02;51.23;101160.47;5062589;28;20434;-59
2022/06/07 04:20:11;;;;;;;3.10;2.80;;;;;;;23.05;50.80;101165.44;5066310;28;20430;-61
2022/06/07 04:22:40;;;;;;;4.88;3.00;;;;;;;22.94;51.30;101162.75;5065008;28;20414;-58
2022/06/07 04:25:07;;;;;;;4.78;2.70;;;;;;;23.01;51.02;101169.66;5063313;28;20422;-58
2022/06/07 04:29:00;;;;;;;4.75;3.40;;;;;;;22.84;51.28;101156.09;5075045;27;20456;-58
2022/06/07 04:31:28;;;;;;;7.10;4.38;;;;;;;22.82;51.61;101158.22;5061546;28;20503;-57
2022/06/07 04:33:57;;;;;;;15.65;7.80;;;;;;;22.73;52.74;101158.84;5063018;28;20422;-58
2022/06/07 04:36:26;;;;;;;3.85;3.22;;;;;;;22.68;52.44;101159.56;5061175;28;20427;-57
2022/06/07 04:38:56;;;;;;;5.75;3.25;;;;;;;22.85;52.35;101159.59;5062039;28;20415;-58
2022/06/07 04:41:24;;;;;;;3.23;2.90;;;;;;;22.57;52.15;101157.72;5059709;28;20490;-58
2022/06/07 04:43:52;;;;;;;4.22;3.15;;;;;;;22.75;51.61;101167.53;5061717;28;20450;-58
2022/06/07 04:46:21;;;;;;;3.92;2.80;;;;;;;22.81;51.36;101161.16;5060972;28;20416;-57
2022/06/07 04:48:49;;;;;;;4.40;2.80;;;;;;;22.80;51.60;101154.94;5060341;28;20443;-57
2022/06/07 04:51:18;;;;;;;3.13;2.53;;;;;;;22.84;51.13;101160.69;5062374;28;20411;-58
2022/06/07 04:53:45;;;;;;;7.18;2.70;;;;;;;22.82;51.25;101163.63;5058733;28;20424;-58
2022/06/07 04:56:15;;;;;;;3.67;2.50;;;;;;;22.73;51.16;101167.75;5060711;28;20802;-59
2022/06/07 04:58:42;;;;;;;4.33;2.80;;;;;;;22.66;51.46;101164.38;5057715;28;20431;-59
2022/06/07 05:01:10;;;;;;;3.60;3.00;;;;;;;22.89;51.27;101169.69;5057752;28;20906;-59
2022/06/07 05:03:38;;;;;;;7.45;3.30;;;;;;;22.58;51.93;101170.16;5057372;28;20412;-59
2022/06/07 05:06:17;;;;;;;4.65;2.80;;;;;;;22.60;51.43;101166.16;5060056;28;20927;-59
2022/06/07 05:08:44;;;;;;;4.78;3.13;;;;;;;22.91;51.49;101169.47;5059928;28;20424;-59
2022/06/07 05:11:11;;;;;;;4.20;2.80;;;;;;;22.89;51.44;101177.81;5058275;28;20495;-60
2022/06/07 05:13:38;;;;;;;5.90;2.80;;;;;;;22.73;51.13;101180.47;5060622;28;20415;-59
2022/06/07 05:16:05;;;;;;;4.78;2.58;;;;;;;22.76;51.38;101180.81;5058486;28;20484;-59
2022/06/07 05:18:32;;;;;;;3.83;2.70;;;;;;;22.80;51.61;101183.84;5062369;28;20806;-60
2022/06/07 05:21:04;;;;;;;3.78;2.60;;;;;;;22.91;51.56;101186.50;5062468;28;20418;-59
2022/06/07 05:23:31;;;;;;;3.20;2.72;;;;;;;22.88;51.37;101186.16;5057073;28;20412;-59
2022/06/07 05:26:03;;;;;;;3.25;2.70;;;;;;;22.93;51.50;101188.97;5056402;28;20412;-59
2022/06/07 05:28:30;;;;;;;3.40;2.80;;;;;;;23.02;51.70;101198.31;5057127;28;20432;-59
2022/06/07 05:30:57;;;;;;;4.57;2.60;;;;;;;23.01;51.21;101194.00;5056230;28;20408;-59
2022/06/07 05:33:24;;;;;;;4.40;2.70;;;;;;;23.03;51.24;101194.56;5058542;28;20410;-59
2022/06/07 05:35:50;;;;;;;4.80;2.88;;;;;;;23.07;51.08;101195.75;5057181;28;20914;-59
2022/06/07 05:38:21;;;;;;;4.40;2.63;;;;;;;23.24;50.37;101194.97;5055904;28;20775;-60
2022/06/07 05:40:47;;;;;;;4.50;2.30;;;;;;;23.18;50.88;101191.34;5043889;28;20801;-59
2022/06/07 05:43:14;;;;;;;4.15;2.70;;;;;;;23.26;49.86;101188.28;5045886;28;20427;-59
2022/06/07 05:45:41;;;;;;;3.33;2.50;;;;;;;23.17;49.79;101192.41;5043846;28;20417;-59
2022/06/07 05:48:09;;;;;;;3.72;2.70;;;;;;;22.90;50.96;101195.69;5045284;28;20436;-59
2022/06/07 05:50:36;;;;;;;5.10;2.47;;;;;;;23.18;50.09;101188.66;5044044;28;20412;-59
2022/06/07 05:53:03;;;;;;;5.85;2.55;;;;;;;23.09;49.85;101182.00;5039489;28;20429;-59
2022/06/07 05:55:31;;;;;;;2.78;2.35;;;;;;;23.15;50.31;101183.72;5046661;28;20421;-59
2022/06/07 05:57:58;;;;;;;5.07;2.72;;;;;;;23.12;49.67;101181.53;5051568;28;20412;-59
2022/06/07 06:00:26;;;;;;;3.63;2.00;;;;;;;23.04;49.54;101176.47;5051457;28;20416;-59
2022/06/07 06:02:53;;;;;;;3.78;2.30;;;;;;;23.09;49.57;101176.59;5045789;28;20774;-59
2022/06/07 06:05:20;;;;;;;4.55;2.45;;;;;;;23.33;48.91;101174.56;5043537;28;20412;-59
2022/06/07 06:10:28;;;;;;;3.58;2.30;;;;;;;23.24;48.44;101168.75;5045803;28;20800;-59
2022/06/07 06:12:56;;;;;;;4.07;2.60;;;;;;;23.34;48.95;101157.28;5045295;28;20796;-59
2022/06/07 06:15:23;;;;;;;3.22;2.30;;;;;;;23.59;48.54;101162.31;5045560;28;20398;-59
2022/06/07 06:17:50;;;;;;;3.05;2.25;;;;;;;23.65;48.71;101168.63;5045183;28;20508;-59
2022/06/07 06:20:17;;;;;;;5.03;2.83;;;;;;;23.18;49.11;101171.63;5045046;28;20444;-59
2022/06/07 06:22:44;;;;;;;3.90;2.60;;;;;;;23.39;48.59;101167.38;5045027;28;20428;-59
2022/06/07 06:25:11;;;;;;;4.83;2.00;;;;;;;23.65;48.02;101164.00;5045000;28;20806;-59
2022/06/07 06:27:38;;;;;;;3.50;2.38;;;;;;;23.62;48.24;101171.81;5044341;28;20490;-59
2022/06/07 06:30:10;;;;;;;2.78;2.20;;;;;;;23.66;48.23;101168.38;5043788;28;20420;-59
2022/06/07 06:32:37;;;;;;;6.32;2.55;;;;;;;23.72;47.42;101165.75;5043941;28;20416;-59
2022/06/07 06:35:05;;;;;;;3.60;2.35;;;;;;;23.64;47.63;101158.84;5043750;28;20421;-59
2022/06/07 06:37:32;;;;;;;3.10;2.20;;;;;;;23.56;47.70;101156.56;5043923;28;20420;-59
2022/06/07 06:39:59;;;;;;;2.90;2.58;;;;;;;24.03;46.72;101153.50;5047792;28;20413;-59
2022/06/07 06:42:26;;;;;;;4.10;2.15;;;;;;;24.17;46.15;101145.84;5040139;28;20415;-59
2022/06/07 06:44:53;;;;;;;7.88;3.10;;;;;;;24.42;46.27;101146.19;5049072;28;20464;-59
2022/06/07 06:47:21;;;;;;;5.40;2.75;;;;;;;24.69;46.13;101158.19;5044492;28;20930;-59
2022/06/07 06:49:48;;;;;;;2.58;1.92;;;;;;;24.68;45.73;101149.22;5046159;28;20409;-59
2022/06/07 06:52:15;;;;;;;8.65;2.58;;;;;;;24.78;45.42;101151.25;5041673;28;20409;-59
2022/06/07 06:54:43;;;;;;;5.15;2.08;;;;;;;25.12;44.87;101151.03;5038731;28;20413;-60
2022/06/07 06:57:09;;;;;;;4.13;2.08;;;;;;;25.30;43.70;101139.00;5049825;28;20419;-60
2022/06/07 06:59:37;;;;;;;2.75;2.20;;;;;;;25.54;43.42;101150.34;5037037;28;20420;-60
2022/06/07 07:02:04;;;;;;;7.20;2.50;;;;;;;25.82;42.64;101146.47;5037697;28;20431;-60
2022/06/07 07:04:33;;;;;;;3.88;2.20;;;;;;;26.23;42.55;101144.00;5049243;28;20423;-60
2022/06/07 07:06:59;;;;;;;4.53;2.40;;;;;;;26.51;42.20;101137.34;5050034;28;20404;-60
2022/06/07 07:09:28;;;;;;;2.88;2.10;;;;;;;26.89;40.70;101140.72;5050298;28;20434;-60
2022/06/07 07:11:56;;;;;;;2.60;2.00;;;;;;;27.22;39.98;101137.78;5040044;28;20452;-60
2022/06/07 07:14:22;;;;;;;2.70;1.95;;;;;;;27.12;40.05;101132.31;5045048;28;20413;-60
2022/06/07 07:16:52;;;;;;;4.18;2.00;;;;;;;27.30;39.82;101123.66;5049761;28;20413;-60
2022/06/07 07:19:21;;;;;;;3.92;2.20;;;;;;;27.74;39.53;101120.34;5050215;28;20419;-60
2022/06/07 07:21:51;;;;;;;2.97;2.40;;;;;;;27.65;39.35;101124.72;5043948;28;20412;-60
2022/06/07 07:24:21;;;;;;;2.20;1.90;;;;;;;27.82;39.39;101118.94;5047489;28;20404;-60
2022/06/07 07:26:49;;;;;;;4.47;2.20;;;;;;;28.10;39.06;101116.72;5048728;28;20417;-61
2022/06/07 07:29:18;;;;;;;4.15;2.00;;;;;;;28.27;38.58;101113.66;5049236;28;20427;-60
2022/06/07 07:31:46;;;;;;;3.78;2.03;;;;;;;28.19;38.42;101106.88;5049887;28;20412;-60
2022/06/07 07:34:15;;;;;;;5.10;2.17;;;;;;;27.88;39.07;101115.13;5048919;28;20424;-60
2022/06/07 07:36:45;;;;;;;5.72;2.20;;;;;;;27.70;39.74;101113.81;5036369;28;20428;-60
2022/06/07 07:39:14;;;;;;;4.30;2.00;;;;;;;28.20;38.67;101103.06;5036936;28;20421;-60
2022/06/07 07:41:42;;;;;;;2.42;1.98;;;;;;;28.15;38.72;101111.28;5049134;28;20404;-60
2022/06/07 07:44:13;;;;;;;3.80;2.05;;;;;;;28.27;38.28;101105.47;5037839;28;20437;-61
2022/06/07 07:46:43;;;;;;;5.05;2.03;;;;;;;28.20;38.17;101100.34;5047329;28;20420;-60
2022/06/07 07:49:09;;;;;;;3.45;1.98;;;;;;;27.86;38.48;101100.97;5049707;28;20433;-60
2022/06/07 07:51:38;;;;;;;2.97;2.00;;;;;;;27.87;38.94;101096.34;5035155;28;20414;-60
2022/06/07 07:54:07;;;;;;;3.33;1.63;;;;;;;27.95;37.88;101096.63;5035363;28;20552;-60
2022/06/07 07:56:36;;;;;;;4.50;1.98;;;;;;;28.08;37.67;101095.22;5041560;28;20416;-60
2022/06/07 07:59:05;;;;;;;3.70;1.77;;;;;;;27.98;37.97;101087.91;5047564;28;20400;-60
2022/06/07 08:01:32;;;;;;;3.05;1.90;;;;;;;27.60;38.18;101090.16;5048879;28;20424;-60
2022/06/07 08:04:01;;;;;;;2.50;1.80;;;;;;;27.78;37.26;101088.72;5035205;28;20415;-59
2022/06/07 08:06:30;;;;;;;3.22;1.88;;;;;;;27.95;37.15;101093.09;5046651;28;20944;-60
2022/06/07 08:08:59;;;;;;;4.97;2.00;;;;;;;27.74;37.12;101092.28;5038600;28;20561;-60
2022/06/07 08:11:28;;;;;;;2.80;1.90;;;;;;;27.35;38.42;101092.88;5049188;28;20528;-60
2022/06/07 08:13:57;;;;;;;3.92;2.50;;;;;;;27.17;37.93;101089.63;5036727;28;20882;-60
2022/06/07 08:16:25;;;;;;;2.92;1.80;;;;;;;27.43;38.19;101084.19;5047641;28;20499;-60
2022/06/07 08:18:52;;;;;;;3.50;2.30;;;;;;;27.45;38.28;101082.00;5049370;28;20427;-60
2022/06/07 08:21:22;;;;;;;3.13;1.98;;;;;;;27.56;37.57;101080.88;5045531;28;20423;-60
2022/06/07 08:23:49;;;;;;;4.10;2.00;;;;;;;27.79;37.99;101070.47;5039357;28;20420;-60
2022/06/07 08:26:17;;;;;;;3.20;1.80;;;;;;;27.46;37.26;101075.47;5046621;28;20416;-60
2022/06/07 08:28:45;;;;;;;1.73;1.50;;;;;;;27.41;35.78;101070.84;5037631;28;20440;-60
2022/06/07 08:31:15;;;;;;;3.95;1.75;;;;;;;27.56;35.26;101075.44;5046196;28;20413;-60
2022/06/07 08:39:11;;;;;;;2.78;1.80;;;;;;;27.87;36.19;101060.91;5032007;28;20405;-60
2022/06/07 08:41:44;;;;;;;3.13;1.80;;;;;;;28.05;35.81;101063.06;5042280;28;20410;-60
2022/06/07 08:44:16;;;;;;;4.10;2.00;;;;;;;28.19;35.83;101055.91;5038428;28;20418;-60
2022/06/07 08:46:44;;;;;;;2.70;1.70;;;;;;;28.36;35.46;101055.56;5046082;28;20412;-60
2022/06/07 08:49:13;;;;;;;2.58;1.80;;;;;;;28.46;34.68;101051.13;5047460;28;20976;-60
2022/06/07 08:51:48;;;;;;;8.27;2.20;;;;;;;28.45;34.86;101050.31;5047654;28;20495;-60
2022/06/07 08:54:18;;;;;;;3.53;1.90;;;;;;;28.51;34.58;101048.38;5029439;28;20422;-60
2022/06/07 08:56:47;;;;;;;7.30;1.90;;;;;;;28.54;34.82;101045.94;5040180;28;20514;-60
2022/06/07 08:59:17;;;;;;;5.80;2.00;;;;;;;28.59;33.45;101047.78;5048480;28;20421;-60
2022/06/07 09:01:54;;;;;;;3.45;1.50;;;;;;;28.46;33.70;101034.78;5048687;28;20420;-59
2022/06/07 09:04:25;;;;;;;2.92;1.33;;;;;;;28.17;33.18;101039.00;5048777;28;20430;-59
2022/06/07 09:06:56;;;;;;;6.00;1.63;;;;;;;28.05;34.89;101030.34;5048684;28;20913;-59
2022/06/07 09:12:09;;;;;;;1.52;1.40;;;;;;;28.38;33.80;101030.75;5031338;28;20426;-59
2022/06/07 09:12:17;;;;;;;3.30;1.30;;;;;;;28.42;33.60;101026.34;5041266;28;20494;-59
2022/06/07 09:14:48;;;;;;;3.33;1.40;;;;;;;28.70;33.31;101024.81;5045445;28;20414;-59
2022/06/07 09:17:18;;;;;;;2.95;1.70;;;;;;;28.82;33.66;101015.44;5044116;28;20802;-59
2022/06/07 09:19:47;;;;;;;2.55;1.40;;;;;;;28.59;33.15;101015.91;5051504;28;20405;-59
2022/06/07 09:22:23;;;;;;;2.53;1.33;;;;;;;28.48;33.59;101017.03;5052099;28;20409;-60
2022/06/07 09:24:56;;;;;;;3.45;1.40;;;;;;;28.14;33.19;101008.78;5036094;28;20844;-59
2022/06/07 09:27:26;;;;;;;3.60;1.60;;;;;;;28.39;33.63;101007.81;5052214;28;20447;-59
2022/06/07 09:29:55;;;;;;;2.00;1.30;;;;;;;28.74;33.38;101000.50;5051918;28;20455;-59
2022/06/07 09:32:26;;;;;;;4.43;1.50;;;;;;;28.73;32.42;101001.59;5042231;28;20417;-59
2022/06/07 09:34:58;;;;;;;2.60;1.50;;;;;;;28.60;32.43;101006.59;5031910;28;20417;-59
2022/06/07 09:37:32;;;;;;;3.20;1.38;;;;;;;28.28;32.83;100998.88;5042347;28;20423;-59
2022/06/07 09:40:20;;;;;;;1.40;1.30;;;;;;;28.20;31.81;100994.84;5036853;28;20907;-59
2022/06/07 09:42:53;;;;;;;2.20;1.20;;;;;;;28.25;31.73;100991.25;5049657;28;20412;-59
2022/06/07 09:45:24;;;;;;;2.25;1.13;;;;;;;28.14;31.09;100989.69;5044937;28;20449;-59
2022/06/07 09:47:52;;;;;;;1.35;1.20;;;;;;;28.46;30.24;100982.97;5041845;28;20915;-59
2022/06/07 09:50:23;;;;;;;2.28;1.40;;;;;;;28.17;30.58;100987.22;5031981;28;20942;-59
2022/06/07 09:52:53;;;;;;;2.28;1.25;;;;;;;28.15;31.36;100989.41;5030583;28;20509;-60
2022/06/07 09:55:26;;;;;;;2.17;1.50;;;;;;;28.20;31.09;100980.41;5031199;28;20804;-60
2022/06/07 09:58:04;;;;;;;3.05;1.30;;;;;;;28.13;31.41;100982.63;5038100;28;20455;-59
2022/06/07 10:00:38;;;;;;;1.60;1.20;;;;;;;28.29;31.04;100978.72;5051335;28;20487;-59
2022/06/07 10:03:28;;;;;;;3.47;1.17;;;;;;;28.18;32.06;100991.59;5032037;28;20418;-59
2022/06/07 10:06:23;;;;;;;2.70;1.40;;;;;;;28.09;32.36;100962.47;5045545;28;20408;-59
2022/06/07 10:09:03;;;;;;;2.60;1.40;;;;;;;28.11;31.68;100972.00;5044251;28;20429;-59
2022/06/07 10:11:36;;;;;;;1.27;1.10;;;;;;;28.11;31.63;100963.84;5031359;28;20501;-59
2022/06/07 10:14:15;;;;;;;3.20;1.30;;;;;;;28.16;32.41;100962.97;5044851;28;20423;-59
2022/06/07 10:16:51;;;;;;;1.67;1.10;;;;;;;28.25;31.52;100953.09;5038969;28;20416;-60
2022/06/07 10:19:33;;;;;;;2.08;1.10;;;;;;;27.93;31.39;100959.84;5050578;28;20412;-59
2022/06/07 10:22:21;;;;;;;2.03;1.10;;;;;;;27.67;32.50;100964.56;5040059;28;20791;-59
2022/06/07 10:24:57;;;;;;;2.10;1.30;;;;;;;27.74;32.19;100953.38;5037059;28;20434;-59
2022/06/07 10:27:32;;;;;;;1.75;1.20;;;;;;;27.89;32.30;100949.75;5051121;28;20886;-59
2022/06/07 10:30:15;;;;;;;1.23;1.10;;;;;;;27.89;32.12;100941.56;5032586;28;20437;-59
2022/06/07 10:32:51;;;;;;;1.60;1.27;;;;;;;28.12;32.81;100946.38;5044000;28;21013;-59
2022/06/07 10:35:24;;;;;;;1.90;1.30;;;;;;;28.06;33.02;100939.34;5051356;28;20423;-59
2022/06/07 10:38:03;;;;;;;2.70;1.10;;;;;;;28.01;31.80;100939.34;5051123;28;20405;-59
2022/06/07 10:40:38;;;;;;;1.40;1.30;;;;;;;28.09;31.41;100938.78;5043754;28;20425;-58
2022/06/07 10:43:16;;;;;;;2.20;1.30;;;;;;;28.10;31.94;100924.03;5045032;28;20859;-57
2022/06/07 10:45:45;;;;;;;2.13;1.20;;;;;;;28.13;31.13;100933.56;5042921;28;20420;-60
2022/06/07 10:48:18;;;;;;;2.40;1.38;;;;;;;28.12;31.20;100919.13;5045067;28;20929;-60
2022/06/07 10:50:51;;;;;;;1.95;1.20;;;;;;;28.25;31.68;100919.56;5043003;28;20434;-60
2022/06/07 10:53:22;;;;;;;1.55;1.45;;;;;;;28.16;32.06;100914.75;5034417;28;20414;-60
2022/06/07 10:55:54;;;;;;;1.73;1.20;;;;;;;28.05;31.40;100923.25;5047814;28;20421;-60
2022/06/07 10:58:30;;;;;;;1.40;1.30;;;;;;;27.93;31.72;100926.31;5050354;28;20412;-61
2022/06/07 11:01:02;;;;;;;2.30;1.50;;;;;;;27.93;32.36;100909.97;5046803;28;20432;-60
2022/06/07 11:03:41;;;;;;;1.90;1.40;;;;;;;28.04;32.45;100917.00;5048292;28;20466;-60
2022/06/07 11:11:50;;;;;;;3.53;1.40;;;;;;;27.89;31.97;100909.69;5038857;28;20806;-60
2022/06/07 11:14:39;;;;;;;2.13;1.30;;;;;;;27.91;32.71;100898.53;5036079;28;20419;-60
2022/06/07 11:17:19;;;;;;;5.10;1.42;;;;;;;27.83;33.12;100889.84;5039603;28;20476;-60
2022/06/07 11:19:46;;;;;;;1.77;1.35;;;;;;;28.00;32.75;100885.94;5029857;28;20955;-60
2022/06/07 11:22:19;;;;;;;2.30;1.40;;;;;;;28.11;32.57;100882.06;5030514;28;20418;-60
2022/06/07 11:25:00;;;;;;;4.55;1.33;;;;;;;28.03;32.53;100880.75;5033656;28;20511;-60
2022/06/07 11:27:28;;;;;;;1.50;1.40;;;;;;;28.16;32.06;100884.75;5040955;28;20422;-60
2022/06/07 11:30:40;;;;;;;2.17;1.30;;;;;;;28.39;31.75;100869.56;5044045;28;20503;-60
2022/06/07 11:33:41;;;;;;;1.50;1.40;;;;;;;28.38;32.70;100870.69;5043824;28;20417;-60
2022/06/07 11:36:28;;;;;;;2.13;1.45;;;;;;;28.36;32.18;100866.59;5050160;28;20516;-59
2022/06/07 11:39:18;;;;;;;1.90;1.50;;;;;;;28.40;32.14;100870.41;5035851;28;20417;-60
2022/06/07 11:41:48;;;;;;;1.90;1.40;;;;;;;28.48;32.86;100863.50;5049358;28;20794;-60
2022/06/07 11:44:36;;;;;;;2.88;1.40;;;;;;;28.45;32.19;100867.63;5049628;28;20413;-60
2022/06/07 11:47:24;;;;;;;2.42;1.60;;;;;;;28.49;32.18;100865.94;5035271;28;20414;-60
2022/06/07 11:50:12;;;;;;;2.88;1.58;;;;;;;28.67;31.83;100855.47;5038635;28;20426;-60
2022/06/07 11:52:57;;;;;;;1.58;1.48;;;;;;;28.52;31.75;100861.81;5030170;28;20510;-60
2022/06/07 11:55:30;;;;;;;2.10;1.55;;;;;;;28.53;32.19;100853.38;5043489;28;20409;-60
2022/06/07 11:58:03;;;;;;;3.13;1.67;;;;;;;28.64;31.73;100850.56;5036615;28;20417;-60
2022/06/07 12:00:49;;;;;;;2.67;1.40;;;;;;;28.44;31.88;100857.81;5049526;28;20413;-60
2022/06/07 12:03:34;;;;;;;1.83;1.58;;;;;;;28.30;31.56;100854.13;5049606;28;20412;-60
2022/06/07 12:06:26;;;;;;;1.83;1.35;;;;;;;28.35;32.09;100843.16;5035410;28;20412;-60
2022/06/07 12:09:01;;;;;;;1.77;1.60;;;;;;;28.54;31.88;100841.38;5049422;28;20413;-60
2022/06/07 12:11:32;;;;;;;1.70;1.60;;;;;;;28.49;31.35;100846.06;5029285;28;20421;-60
2022/06/07 12:14:26;;;;;;;2.20;1.77;;;;;;;28.20;31.68;100847.66;5042764;28;20408;-60
2022/06/07 12:16:56;;;;;;;2.63;1.70;;;;;;;28.36;31.79;100844.78;5029150;28;20774;-60